sensor_id;sensor_type;location;lat;lon;timestamp;pressure;altitude;pressure_sealevel;temperature;humidity
11888;BME280;6003;42.756;23.130;2023-04-22T00:01:03;154059.78;;;6.41;100.00
11888;BME280;6003;42.756;23.130;2023-04-22T00:03:31;154071.66;;;6.46;100.00
11888;BME280;6003;42.756;23.130;2023-04-22T00:05:58;154066.34;;;6.44;100.00
11888;BME280;6003;42.756;23.130;2023-04-22T00:08:25;154026.84;;;6.28;100.00
11888;BME280;6003;42.756;23.130;2023-04-22T00:10:52;154042.66;;;6.35;100.00
11888;BME280;6003;42.756;23.130;2023-04-22T00:13:18;154040.03;;;6.33;100.00
11888;BME280;6003;42.756;23.130;2023-04-22T00:15:45;154029.47;;;6.29;100.00
11888;BME280;6003;42.756;23.130;2023-04-22T00:18:12;154005.78;;;6.20;100.00
11888;BME280;6003;42.756;23.130;2023-04-22T00:20:41;154018.97;;;6.25;100.00
11888;BME280;6003;42.756;23.130;2023-04-22T00:23:11;154032.16;;;6.30;100.00
11888;BME280;6003;42.756;23.130;2023-04-22T00:25:38;154057.16;;;6.40;100.00
11888;BME280;6003;42.756;23.130;2023-04-22T00:28:05;154069.03;;;6.45;100.00
11888;BME280;6003;42.756;23.130;2023-04-22T00:30:34;154067.66;;;6.44;100.00
11888;BME280;6003;42.756;23.130;2023-04-22T00:33:01;154071.66;;;6.46;100.00
11888;BME280;6003;42.756;23.130;2023-04-22T00:35:28;154086.13;;;6.51;100.00
11888;BME280;6003;42.756;23.130;2023-04-22T00:37:56;154098.03;;;6.56;100.00
11888;BME280;6003;42.756;23.130;2023-04-22T00:40:23;154100.63;;;6.57;100.00
11888;BME280;6003;42.756;23.130;2023-04-22T00:42:50;154107.22;;;6.60;100.00
11888;BME280;6003;42.756;23.130;2023-04-22T00:45:20;154115.13;;;6.63;100.00
11888;BME280;6003;42.756;23.130;2023-04-22T00:47:47;154123.03;;;6.66;100.00
11888;BME280;6003;42.756;23.130;2023-04-22T00:50:14;154133.56;;;6.70;100.00
11888;BME280;6003;42.756;23.130;2023-04-22T00:52:41;154142.81;;;6.73;100.00
11888;BME280;6003;42.756;23.130;2023-04-22T00:55:10;154198.13;;;6.95;100.00
11888;BME280;6003;42.756;23.130;2023-04-22T00:57:37;154175.72;;;6.86;100.00
11888;BME280;6003;42.756;23.130;2023-04-22T01:00:06;154142.81;;;6.73;100.00
11888;BME280;6003;42.756;23.130;2023-04-22T01:02:34;154104.56;;;6.59;100.00
11888;BME280;6003;42.756;23.130;2023-04-22T01:05:02;154051.88;;;6.38;100.00
11888;BME280;6003;42.756;23.130;2023-04-22T01:07:29;153992.59;;;6.15;100.00
11888;BME280;6003;42.756;23.130;2023-04-22T01:09:55;154000.50;;;6.18;100.00
11888;BME280;6003;42.756;23.130;2023-04-22T01:12:24;153999.19;;;6.18;100.00
11888;BME280;6003;42.756;23.130;2023-04-22T01:14:51;153974.19;;;6.08;100.00
11888;BME280;6003;42.756;23.130;2023-04-22T01:17:17;153947.81;;;5.98;100.00
11888;BME280;6003;42.756;23.130;2023-04-22T01:19:47;153936.00;;;5.93;100.00
11888;BME280;6003;42.756;23.130;2023-04-22T01:22:14;153934.59;;;5.93;100.00
11888;BME280;6003;42.756;23.130;2023-04-22T01:24:42;153947.81;;;5.98;100.00
11888;BME280;6003;42.756;23.130;2023-04-22T01:27:10;153979.47;;;6.10;100.00
11888;BME280;6003;42.756;23.130;2023-04-22T01:29:37;153975.50;;;6.08;100.00
11888;BME280;6003;42.756;23.130;2023-04-22T01:32:05;153964.97;;;6.04;100.00
11888;BME280;6003;42.756;23.130;2023-04-22T01:34:32;153971.50;;;6.07;100.00
11888;BME280;6003;42.756;23.130;2023-04-22T01:36:59;153975.50;;;6.08;100.00
11888;BME280;6003;42.756;23.130;2023-04-22T01:39:26;153951.78;;;5.99;100.00
11888;BME280;6003;42.756;23.130;2023-04-22T01:41:54;153939.91;;;5.95;100.00
11888;BME280;6003;42.756;23.130;2023-04-22T01:44:23;153949.13;;;5.98;100.00
11888;BME280;6003;42.756;23.130;2023-04-22T01:46:49;153959.69;;;6.02;100.00
11888;BME280;6003;42.756;23.130;2023-04-22T01:49:16;153950.47;;;5.99;100.00
11888;BME280;6003;42.756;23.130;2023-04-22T01:51:43;153924.06;;;5.88;100.00
11888;BME280;6003;42.756;23.130;2023-04-22T01:54:10;153905.66;;;5.81;100.00
11888;BME280;6003;42.756;23.130;2023-04-22T01:56:37;153931.97;;;5.92;100.00
11888;BME280;6003;42.756;23.130;2023-04-22T01:59:06;153937.31;;;5.94;100.00
11888;BME280;6003;42.756;23.130;2023-04-22T02:01:33;153931.97;;;5.92;100.00
11888;BME280;6003;42.756;23.130;2023-04-22T02:04:00;153918.78;;;5.86;100.00
11888;BME280;6003;42.756;23.130;2023-04-22T02:06:26;153912.22;;;5.84;100.00
11888;BME280;6003;42.756;23.130;2023-04-22T02:08:53;153908.28;;;5.82;100.00
11888;BME280;6003;42.756;23.130;2023-04-22T02:11:20;153918.78;;;5.86;100.00
11888;BME280;6003;42.756;23.130;2023-04-22T02:13:47;153942.59;;;5.96;100.00
11888;BME280;6003;42.756;23.130;2023-04-22T02:16:15;153941.22;;;5.95;100.00
11888;BME280;6003;42.756;23.130;2023-04-22T02:18:42;153931.97;;;5.92;100.00
11888;BME280;6003;42.756;23.130;2023-04-22T02:21:09;153930.66;;;5.91;100.00
11888;BME280;6003;42.756;23.130;2023-04-22T02:23:36;153928.06;;;5.90;100.00
11888;BME280;6003;42.756;23.130;2023-04-22T02:26:04;153892.50;;;5.76;100.00
11888;BME280;6003;42.756;23.130;2023-04-22T02:28:31;153881.94;;;5.72;100.00
11888;BME280;6003;42.756;23.130;2023-04-22T02:30:58;153903.00;;;5.80;100.00
11888;BME280;6003;42.756;23.130;2023-04-22T02:33:26;153924.06;;;5.88;100.00
11888;BME280;6003;42.756;23.130;2023-04-22T02:35:53;153942.59;;;5.96;100.00
11888;BME280;6003;42.756;23.130;2023-04-22T02:38:19;153946.50;;;5.97;100.00
11888;BME280;6003;42.756;23.130;2023-04-22T02:40:46;153950.47;;;5.99;100.00
11888;BME280;6003;42.756;23.130;2023-04-22T02:43:13;153966.28;;;6.05;100.00
11888;BME280;6003;42.756;23.130;2023-04-22T02:45:40;153975.50;;;6.08;100.00
11888;BME280;6003;42.756;23.130;2023-04-22T02:48:06;153966.28;;;6.05;100.00
11888;BME280;6003;42.756;23.130;2023-04-22T02:50:35;153958.38;;;6.02;100.00
11888;BME280;6003;42.756;23.130;2023-04-22T02:53:02;153958.38;;;6.02;100.00
11888;BME280;6003;42.756;23.130;2023-04-22T02:55:29;153963.63;;;6.04;100.00
11888;BME280;6003;42.756;23.130;2023-04-22T02:57:56;153957.06;;;6.01;100.00
11888;BME280;6003;42.756;23.130;2023-04-22T03:00:22;153942.59;;;5.96;100.00
11888;BME280;6003;42.756;23.130;2023-04-22T03:02:49;153945.19;;;5.97;100.00
11888;BME280;6003;42.756;23.130;2023-04-22T03:05:16;153958.38;;;6.02;100.00
11888;BME280;6003;42.756;23.130;2023-04-22T03:07:45;153931.97;;;5.92;100.00
11888;BME280;6003;42.756;23.130;2023-04-22T03:10:13;153916.19;;;5.85;100.00
11888;BME280;6003;42.756;23.130;2023-04-22T03:12:40;153908.28;;;5.82;100.00
11888;BME280;6003;42.756;23.130;2023-04-22T03:15:08;153901.69;;;5.80;100.00
11888;BME280;6003;42.756;23.130;2023-04-22T03:17:35;153904.31;;;5.81;100.00
11888;BME280;6003;42.756;23.130;2023-04-22T03:20:02;153908.28;;;5.82;100.00
11888;BME280;6003;42.756;23.130;2023-04-22T03:22:29;153913.56;;;5.84;100.00
11888;BME280;6003;42.756;23.130;2023-04-22T03:24:57;153925.38;;;5.89;100.00
11888;BME280;6003;42.756;23.130;2023-04-22T03:27:23;153934.59;;;5.93;100.00
11888;BME280;6003;42.756;23.130;2023-04-22T03:29:50;153950.47;;;5.99;100.00
11888;BME280;6003;42.756;23.130;2023-04-22T03:32:17;153958.38;;;6.02;100.00
11888;BME280;6003;42.756;23.130;2023-04-22T03:34:44;153962.31;;;6.03;100.00
11888;BME280;6003;42.756;23.130;2023-04-22T03:37:11;153958.38;;;6.02;100.00
11888;BME280;6003;42.756;23.130;2023-04-22T03:39:37;153955.72;;;6.01;100.00
11888;BME280;6003;42.756;23.130;2023-04-22T03:42:06;153957.06;;;6.01;100.00
11888;BME280;6003;42.756;23.130;2023-04-22T03:44:33;153963.63;;;6.04;100.00
11888;BME280;6003;42.756;23.130;2023-04-22T03:46:59;153992.59;;;6.15;100.00
11888;BME280;6003;42.756;23.130;2023-04-22T03:49:32;154021.56;;;6.26;100.00
11888;BME280;6003;42.756;23.130;2023-04-22T03:51:59;154059.78;;;6.41;100.00
11888;BME280;6003;42.756;23.130;2023-04-22T03:54:26;154099.31;;;6.57;100.00
11888;BME280;6003;42.756;23.130;2023-04-22T03:56:52;154154.66;;;6.78;100.00
11888;BME280;6003;42.756;23.130;2023-04-22T03:59:20;154186.25;;;6.90;100.00
11888;BME280;6003;42.756;23.130;2023-04-22T04:01:50;154237.66;;;7.10;100.00
11888;BME280;6003;42.756;23.130;2023-04-22T04:04:17;154264.06;;;7.20;100.00
11888;BME280;6003;42.756;23.130;2023-04-22T04:06:43;154282.47;;;7.28;100.00
11888;BME280;6003;42.756;23.130;2023-04-22T04:09:10;154306.25;;;7.37;100.00
11888;BME280;6003;42.756;23.130;2023-04-22T04:11:37;154322.06;;;7.43;100.00
11888;BME280;6003;42.756;23.130;2023-04-22T04:14:04;154332.59;;;7.47;100.00
11888;BME280;6003;42.756;23.130;2023-04-22T04:16:32;154364.22;;;7.59;100.00
11888;BME280;6003;42.756;23.130;2023-04-22T04:18:59;154382.72;;;7.66;100.00
11888;BME280;6003;42.756;23.130;2023-04-22T04:21:26;154401.16;;;7.74;100.00
11888;BME280;6003;42.756;23.130;2023-04-22T04:23:53;154411.72;;;7.78;100.00
11888;BME280;6003;42.756;23.130;2023-04-22T04:26:20;154506.72;;;8.14;100.00
11888;BME280;6003;42.756;23.130;2023-04-22T04:28:48;154657.16;;;8.73;100.00
11888;BME280;6003;42.756;23.130;2023-04-22T04:31:15;154844.63;;;9.45;100.00
11888;BME280;6003;42.756;23.130;2023-04-22T04:33:43;155032.22;;;10.18;99.27
11888;BME280;6003;42.756;23.130;2023-04-22T04:36:10;155225.25;;;10.93;95.93
11888;BME280;6003;42.756;23.130;2023-04-22T04:38:37;155325.75;;;11.32;91.55
11888;BME280;6003;42.756;23.130;2023-04-22T04:41:04;155390.59;;;11.57;89.06
11888;BME280;6003;42.756;23.130;2023-04-22T04:43:32;155443.50;;;11.77;87.73
11888;BME280;6003;42.756;23.130;2023-04-22T04:46:00;155473.97;;;11.89;86.74
11888;BME280;6003;42.756;23.130;2023-04-22T04:48:27;155533.53;;;12.12;85.57
11888;BME280;6003;42.756;23.130;2023-04-22T04:50:55;155667.22;;;12.63;84.73
11888;BME280;6003;42.756;23.130;2023-04-22T04:53:23;155826.09;;;13.25;83.40
11888;BME280;6003;42.756;23.130;2023-04-22T04:55:50;155982.50;;;13.85;81.15
11888;BME280;6003;42.756;23.130;2023-04-22T04:58:16;156064.66;;;14.17;77.77
11888;BME280;6003;42.756;23.130;2023-04-22T05:00:43;156193.28;;;14.66;75.07
11888;BME280;6003;42.756;23.130;2023-04-22T05:03:10;156447.97;;;15.65;70.55
11888;BME280;6003;42.756;23.130;2023-04-22T05:05:37;156390.94;;;15.43;71.04
11888;BME280;6003;42.756;23.130;2023-04-22T05:08:05;156438.69;;;15.61;70.61
11888;BME280;6003;42.756;23.130;2023-04-22T05:10:32;156475.88;;;15.75;70.78
11888;BME280;6003;42.756;23.130;2023-04-22T05:12:59;156587.38;;;16.18;70.51
11888;BME280;6003;42.756;23.130;2023-04-22T05:15:26;156669.69;;;16.50;68.60
11888;BME280;6003;42.756;23.130;2023-04-22T05:17:53;156576.78;;;16.14;66.45
11888;BME280;6003;42.756;23.130;2023-04-22T05:20:19;156749.44;;;16.81;68.74
11888;BME280;6003;42.756;23.130;2023-04-22T05:22:46;156930.09;;;17.50;65.99
11888;BME280;6003;42.756;23.130;2023-04-22T05:25:14;156956.63;;;17.60;64.04
11888;BME280;6003;42.756;23.130;2023-04-22T05:27:41;156791.91;;;16.97;66.89
11888;BME280;6003;42.756;23.130;2023-04-22T05:30:09;156757.41;;;16.84;66.41
11888;BME280;6003;42.756;23.130;2023-04-22T05:32:36;156760.03;;;16.85;65.85
11888;BME280;6003;42.756;23.130;2023-04-22T05:35:03;156791.91;;;16.97;64.74
11888;BME280;6003;42.756;23.130;2023-04-22T05:37:30;156378.97;;;15.38;71.01
11888;BME280;6003;42.756;23.130;2023-04-22T05:39:56;156343.16;;;15.24;70.41
11888;BME280;6003;42.756;23.130;2023-04-22T05:42:25;156475.88;;;15.75;67.89
11888;BME280;6003;42.756;23.130;2023-04-22T05:44:51;156332.56;;;15.20;71.97
11888;BME280;6003;42.756;23.130;2023-04-22T05:47:18;156521.00;;;15.93;69.17
11888;BME280;6003;42.756;23.130;2023-04-22T05:49:45;156360.44;;;15.31;71.08
11888;BME280;6003;42.756;23.130;2023-04-22T05:52:12;156242.38;;;14.85;74.02
11888;BME280;6003;42.756;23.130;2023-04-22T05:54:38;156144.22;;;14.48;72.44
11888;BME280;6003;42.756;23.130;2023-04-22T05:57:05;156022.22;;;14.00;77.08
11888;BME280;6003;42.756;23.130;2023-04-22T05:59:34;156073.94;;;14.20;77.44
11888;BME280;6003;42.756;23.130;2023-04-22T06:02:00;156298.06;;;15.07;73.74
11888;BME280;6003;42.756;23.130;2023-04-22T06:04:27;156385.63;;;15.41;71.84
11888;BME280;6003;42.756;23.130;2023-04-22T06:06:55;156481.22;;;15.77;71.52
11888;BME280;6003;42.756;23.130;2023-04-22T06:09:21;156436.03;;;15.60;71.26
11888;BME280;6003;42.756;23.130;2023-04-22T06:11:49;156590.00;;;16.19;70.06
11888;BME280;6003;42.756;23.130;2023-04-22T06:14:15;156466.63;;;15.72;67.80
11888;BME280;6003;42.756;23.130;2023-04-22T06:16:43;156583.38;;;16.17;68.02
11888;BME280;6003;42.756;23.130;2023-04-22T06:19:10;156433.38;;;15.59;69.30
11888;BME280;6003;42.756;23.130;2023-04-22T06:21:37;156613.94;;;16.29;70.54
11888;BME280;6003;42.756;23.130;2023-04-22T06:24:05;156744.09;;;16.79;66.84
11888;BME280;6003;42.756;23.130;2023-04-22T06:26:33;156895.53;;;17.37;64.29
11888;BME280;6003;42.756;23.130;2023-04-22T06:29:00;156794.59;;;16.98;63.16
11888;BME280;6003;42.756;23.130;2023-04-22T06:31:29;156903.47;;;17.40;63.77
11888;BME280;6003;42.756;23.130;2023-04-22T06:33:57;156948.66;;;17.57;66.16
11888;BME280;6003;42.756;23.130;2023-04-22T06:36:25;156942.00;;;17.55;63.32
11888;BME280;6003;42.756;23.130;2023-04-22T06:38:52;157005.88;;;17.79;62.67
11888;BME280;6003;42.756;23.130;2023-04-22T06:41:20;156955.31;;;17.60;62.66
11888;BME280;6003;42.756;23.130;2023-04-22T06:43:47;156892.88;;;17.36;62.43
11888;BME280;6003;42.756;23.130;2023-04-22T06:46:15;156874.25;;;17.29;62.92
11888;BME280;6003;42.756;23.130;2023-04-22T06:48:41;156911.47;;;17.43;62.88
11888;BME280;6003;42.756;23.130;2023-04-22T06:51:10;156775.97;;;16.91;66.57
11888;BME280;6003;42.756;23.130;2023-04-22T06:53:36;156805.19;;;17.02;65.56
11888;BME280;6003;42.756;23.130;2023-04-22T06:56:04;156810.53;;;17.04;66.92
11888;BME280;6003;42.756;23.130;2023-04-22T06:58:30;156613.94;;;16.29;68.47
11888;BME280;6003;42.756;23.130;2023-04-22T07:00:57;156644.47;;;16.40;65.95
11888;BME280;6003;42.756;23.130;2023-04-22T07:03:24;156608.63;;;16.27;69.37
11888;BME280;6003;42.756;23.130;2023-04-22T07:05:51;156587.38;;;16.18;67.09
11888;BME280;6003;42.756;23.130;2023-04-22T07:08:19;156648.44;;;16.42;67.89
11888;BME280;6003;42.756;23.130;2023-04-22T07:10:46;156595.34;;;16.21;67.36
11888;BME280;6003;42.756;23.130;2023-04-22T07:13:13;156436.03;;;15.60;68.49
11888;BME280;6003;42.756;23.130;2023-04-22T07:15:40;156412.19;;;15.51;71.40
11888;BME280;6003;42.756;23.130;2023-04-22T07:18:07;156451.97;;;15.66;69.92
11888;BME280;6003;42.756;23.130;2023-04-22T07:20:33;156409.50;;;15.50;71.42
11888;BME280;6003;42.756;23.130;2023-04-22T07:23:00;156449.31;;;15.65;70.33
11888;BME280;6003;42.756;23.130;2023-04-22T07:25:29;156348.47;;;15.26;70.49
11888;BME280;6003;42.756;23.130;2023-04-22T07:27:55;156463.97;;;15.71;70.47
11888;BME280;6003;42.756;23.130;2023-04-22T07:30:22;156542.25;;;16.01;73.17
11888;BME280;6003;42.756;23.130;2023-04-22T07:32:49;156600.66;;;16.23;68.13
11888;BME280;6003;42.756;23.130;2023-04-22T07:35:16;156648.44;;;16.42;68.91
11888;BME280;6003;42.756;23.130;2023-04-22T07:37:43;156714.84;;;16.67;67.99
11888;BME280;6003;42.756;23.130;2023-04-22T07:40:11;156748.13;;;16.80;62.46
11888;BME280;6003;42.756;23.130;2023-04-22T07:42:39;156775.97;;;16.91;62.37
11888;BME280;6003;42.756;23.130;2023-04-22T07:45:07;156826.44;;;17.10;65.02
11888;BME280;6003;42.756;23.130;2023-04-22T07:47:34;156834.41;;;17.13;62.52
11888;BME280;6003;42.756;23.130;2023-04-22T07:50:01;156805.19;;;17.02;63.15
11888;BME280;6003;42.756;23.130;2023-04-22T07:52:28;156789.25;;;16.96;65.50
11888;BME280;6003;42.756;23.130;2023-04-22T07:54:55;156762.66;;;16.86;61.90
11888;BME280;6003;42.756;23.130;2023-04-22T07:57:23;156750.75;;;16.81;62.82
11888;BME280;6003;42.756;23.130;2023-04-22T07:59:51;156783.94;;;16.94;67.84
11888;BME280;6003;42.756;23.130;2023-04-22T08:02:18;156908.81;;;17.42;63.81
11888;BME280;6003;42.756;23.130;2023-04-22T08:04:45;156976.56;;;17.68;62.17
11888;BME280;6003;42.756;23.130;2023-04-22T08:07:13;157048.41;;;17.96;65.63
11888;BME280;6003;42.756;23.130;2023-04-22T08:09:40;157094.94;;;18.14;61.20
11888;BME280;6003;42.756;23.130;2023-04-22T08:12:07;157094.94;;;18.14;60.11
11888;BME280;6003;42.756;23.130;2023-04-22T08:14:34;157060.34;;;18.00;59.22
11888;BME280;6003;42.756;23.130;2023-04-22T08:17:03;157150.75;;;18.35;61.19
11888;BME280;6003;42.756;23.130;2023-04-22T08:19:29;157169.38;;;18.42;56.33
11888;BME280;6003;42.756;23.130;2023-04-22T08:21:56;157157.41;;;18.38;57.03
11888;BME280;6003;42.756;23.130;2023-04-22T08:24:23;157152.09;;;18.36;60.15
11888;BME280;6003;42.756;23.130;2023-04-22T08:26:51;157118.84;;;18.23;59.63
11888;BME280;6003;42.756;23.130;2023-04-22T08:29:19;157110.88;;;18.20;59.15
11888;BME280;6003;42.756;23.130;2023-04-22T08:31:46;157044.41;;;17.94;57.10
11888;BME280;6003;42.756;23.130;2023-04-22T08:34:15;157053.69;;;17.98;58.73
11888;BME280;6003;42.756;23.130;2023-04-22T08:36:42;157124.19;;;18.25;59.01
11888;BME280;6003;42.756;23.130;2023-04-22T08:39:09;157165.38;;;18.41;57.40
11888;BME280;6003;42.756;23.130;2023-04-22T08:41:37;157194.63;;;18.52;55.81
11888;BME280;6003;42.756;23.130;2023-04-22T08:44:05;157251.88;;;18.74;57.25
11888;BME280;6003;42.756;23.130;2023-04-22T08:46:32;157233.19;;;18.67;56.50
11888;BME280;6003;42.756;23.130;2023-04-22T08:49:12;157254.50;;;18.75;57.82
11888;BME280;6003;42.756;23.130;2023-04-22T08:51:44;157235.88;;;18.68;51.65
11888;BME280;6003;42.756;23.130;2023-04-22T08:54:11;157241.16;;;18.70;56.57
11888;BME280;6003;42.756;23.130;2023-04-22T08:56:39;157322.34;;;19.01;55.87
11888;BME280;6003;42.756;23.130;2023-04-22T08:59:08;157341.00;;;19.08;53.75
11888;BME280;6003;42.756;23.130;2023-04-22T09:01:36;157351.63;;;19.12;50.73
11888;BME280;6003;42.756;23.130;2023-04-22T09:04:04;157431.44;;;19.43;52.62
11888;BME280;6003;42.756;23.130;2023-04-22T09:06:31;157411.47;;;19.35;53.11
11888;BME280;6003;42.756;23.130;2023-04-22T09:09:00;157329.00;;;19.04;53.42
11888;BME280;6003;42.756;23.130;2023-04-22T09:11:28;157299.72;;;18.92;58.76
11888;BME280;6003;42.756;23.130;2023-04-22T09:13:55;157294.44;;;18.90;55.67
11888;BME280;6003;42.756;23.130;2023-04-22T09:16:22;157286.47;;;18.87;55.22
11888;BME280;6003;42.756;23.130;2023-04-22T09:18:49;157253.19;;;18.75;51.01
11888;BME280;6003;42.756;23.130;2023-04-22T09:21:16;157254.50;;;18.75;53.04
11888;BME280;6003;42.756;23.130;2023-04-22T09:23:45;157339.66;;;19.08;49.58
11888;BME280;6003;42.756;23.130;2023-04-22T09:26:14;157311.72;;;18.97;50.31
11888;BME280;6003;42.756;23.130;2023-04-22T09:28:48;157318.38;;;19.00;50.28
11888;BME280;6003;42.756;23.130;2023-04-22T09:31:15;157172.03;;;18.43;51.76
11888;BME280;6003;42.756;23.130;2023-04-22T09:33:46;157238.50;;;18.69;49.22
11888;BME280;6003;42.756;23.130;2023-04-22T09:36:13;157129.50;;;18.27;51.47
11888;BME280;6003;42.756;23.130;2023-04-22T09:38:50;157069.69;;;18.04;49.54
11888;BME280;6003;42.756;23.130;2023-04-22T09:41:25;157126.81;;;18.26;56.89
11888;BME280;6003;42.756;23.130;2023-04-22T09:43:53;157283.78;;;18.86;53.01
11888;BME280;6003;42.756;23.130;2023-04-22T09:46:21;157322.34;;;19.01;47.14
11888;BME280;6003;42.756;23.130;2023-04-22T09:48:49;157323.66;;;19.02;48.16
11888;BME280;6003;42.756;23.130;2023-04-22T09:51:17;157259.84;;;18.77;49.81
11888;BME280;6003;42.756;23.130;2023-04-22T09:53:44;157209.25;;;18.58;50.33
11888;BME280;6003;42.756;23.130;2023-04-22T09:56:11;157090.91;;;18.12;53.66
11888;BME280;6003;42.756;23.130;2023-04-22T09:58:39;157013.84;;;17.83;56.05
11888;BME280;6003;42.756;23.130;2023-04-22T10:01:08;157013.84;;;17.83;57.90
11888;BME280;6003;42.756;23.130;2023-04-22T10:03:35;157028.47;;;17.88;57.48
11888;BME280;6003;42.756;23.130;2023-04-22T10:06:02;156972.63;;;17.67;57.92
11888;BME280;6003;42.756;23.130;2023-04-22T10:08:29;157007.19;;;17.80;56.36
11888;BME280;6003;42.756;23.130;2023-04-22T10:10:57;156996.53;;;17.76;59.13
11888;BME280;6003;42.756;23.130;2023-04-22T10:13:24;156886.22;;;17.33;57.02
11888;BME280;6003;42.756;23.130;2023-04-22T10:15:54;156847.72;;;17.19;56.14
11888;BME280;6003;42.756;23.130;2023-04-22T10:18:23;156850.34;;;17.20;58.44
11888;BME280;6003;42.756;23.130;2023-04-22T10:20:52;156879.59;;;17.31;61.18
11888;BME280;6003;42.756;23.130;2023-04-22T10:23:22;156847.72;;;17.19;55.72
11888;BME280;6003;42.756;23.130;2023-04-22T10:25:52;156850.34;;;17.20;58.98
11888;BME280;6003;42.756;23.130;2023-04-22T10:28:20;156821.13;;;17.08;56.03
11888;BME280;6003;42.756;23.130;2023-04-22T10:30:48;156845.06;;;17.18;57.67
11888;BME280;6003;42.756;23.130;2023-04-22T10:33:38;156866.28;;;17.26;58.58
11888;BME280;6003;42.756;23.130;2023-04-22T10:36:09;156908.81;;;17.42;58.32
11888;BME280;6003;42.756;23.130;2023-04-22T10:38:37;156942.00;;;17.55;56.47
11888;BME280;6003;42.756;23.130;2023-04-22T10:41:04;156916.78;;;17.45;56.01
11888;BME280;6003;42.756;23.130;2023-04-22T10:43:42;156875.63;;;17.29;53.94
11888;BME280;6003;42.756;23.130;2023-04-22T10:49:18;156855.69;;;17.22;55.08
11888;BME280;6003;42.756;23.130;2023-04-22T10:51:47;156892.88;;;17.36;56.70
11888;BME280;6003;42.756;23.130;2023-04-22T10:57:19;156810.53;;;17.04;53.57
11888;BME280;6003;42.756;23.130;2023-04-22T10:59:48;156864.97;;;17.25;51.71
11888;BME280;6003;42.756;23.130;2023-04-22T11:02:18;156895.53;;;17.37;54.96
11888;BME280;6003;42.756;23.130;2023-04-22T11:04:47;156898.22;;;17.38;50.18
11888;BME280;6003;42.756;23.130;2023-04-22T11:07:14;156831.78;;;17.12;51.13
11888;BME280;6003;42.756;23.130;2023-04-22T11:09:44;156870.28;;;17.27;51.97
11888;BME280;6003;42.756;23.130;2023-04-22T11:12:41;156932.72;;;17.51;53.83
11888;BME280;6003;42.756;23.130;2023-04-22T11:15:09;156975.25;;;17.68;55.22
11888;BME280;6003;42.756;23.130;2023-04-22T11:17:37;156760.03;;;16.85;54.24
11888;BME280;6003;42.756;23.130;2023-04-22T11:20:07;156578.09;;;16.15;56.78
11888;BME280;6003;42.756;23.130;2023-04-22T11:22:34;156444.00;;;15.63;58.81
11888;BME280;6003;42.756;23.130;2023-04-22T11:25:02;156486.53;;;15.79;61.73
11888;BME280;6003;42.756;23.130;2023-04-22T11:27:30;156498.44;;;15.84;60.36
11888;BME280;6003;42.756;23.130;2023-04-22T11:30:00;156517.06;;;15.91;61.16
11888;BME280;6003;42.756;23.130;2023-04-22T11:32:30;156473.25;;;15.74;58.74
11888;BME280;6003;42.756;23.130;2023-04-22T11:34:57;156523.66;;;15.94;60.71
11888;BME280;6003;42.756;23.130;2023-04-22T11:37:25;156555.53;;;16.06;60.54
11888;BME280;6003;42.756;23.130;2023-04-22T11:40:00;156571.47;;;16.12;59.51
11888;BME280;6003;42.756;23.130;2023-04-22T11:42:28;156542.25;;;16.01;57.55
11888;BME280;6003;42.756;23.130;2023-04-22T11:44:55;156555.53;;;16.06;58.83
11888;BME280;6003;42.756;23.130;2023-04-22T11:47:22;156551.53;;;16.05;57.86
11888;BME280;6003;42.756;23.130;2023-04-22T11:49:55;156499.75;;;15.85;59.21
11888;BME280;6003;42.756;23.130;2023-04-22T11:52:24;156483.84;;;15.78;58.84
11888;BME280;6003;42.756;23.130;2023-04-22T11:55:05;156502.44;;;15.86;58.24
11888;BME280;6003;42.756;23.130;2023-04-22T11:57:35;156526.34;;;15.95;57.36
11888;BME280;6003;42.756;23.130;2023-04-22T12:00:02;156481.22;;;15.77;57.06
11888;BME280;6003;42.756;23.130;2023-04-22T12:02:29;156544.88;;;16.02;58.62
11888;BME280;6003;42.756;23.130;2023-04-22T12:04:57;156542.25;;;16.01;59.03
11888;BME280;6003;42.756;23.130;2023-04-22T12:07:27;156495.81;;;15.83;58.66
11888;BME280;6003;42.756;23.130;2023-04-22T12:10:06;156518.38;;;15.92;60.59
11888;BME280;6003;42.756;23.130;2023-04-22T12:12:33;156493.13;;;15.82;58.52
11888;BME280;6003;42.756;23.130;2023-04-22T12:15:09;156430.72;;;15.58;58.55
11888;BME280;6003;42.756;23.130;2023-04-22T12:17:36;156465.28;;;15.71;56.63
11888;BME280;6003;42.756;23.130;2023-04-22T12:20:03;156509.09;;;15.88;58.13
11888;BME280;6003;42.756;23.130;2023-04-22T12:22:33;156523.66;;;15.94;58.52
11888;BME280;6003;42.756;23.130;2023-04-22T12:25:00;156475.88;;;15.75;58.86
11888;BME280;6003;42.756;23.130;2023-04-22T12:27:27;156478.53;;;15.76;58.64
11888;BME280;6003;42.756;23.130;2023-04-22T12:29:56;156465.28;;;15.71;58.68
11888;BME280;6003;42.756;23.130;2023-04-22T12:32:24;156501.09;;;15.85;57.39
11888;BME280;6003;42.756;23.130;2023-04-22T12:34:51;156515.69;;;15.91;57.53
11888;BME280;6003;42.756;23.130;2023-04-22T12:37:18;156547.56;;;16.03;56.96
11888;BME280;6003;42.756;23.130;2023-04-22T12:39:46;156515.69;;;15.91;55.71
11888;BME280;6003;42.756;23.130;2023-04-22T12:42:13;156509.09;;;15.88;58.21
11888;BME280;6003;42.756;23.130;2023-04-22T12:44:40;156518.38;;;15.92;57.37
11888;BME280;6003;42.756;23.130;2023-04-22T12:47:07;156536.94;;;15.99;57.79
11888;BME280;6003;42.756;23.130;2023-04-22T12:49:35;156554.22;;;16.06;55.75
11888;BME280;6003;42.756;23.130;2023-04-22T12:52:04;156555.53;;;16.06;56.70
11888;BME280;6003;42.756;23.130;2023-04-22T12:54:31;156586.06;;;16.18;57.50
11888;BME280;6003;42.756;23.130;2023-04-22T12:56:59;156513.03;;;15.90;54.16
11888;BME280;6003;42.756;23.130;2023-04-22T12:59:27;156436.03;;;15.60;55.84